Time;durP1;ratioP1;P1;durP2;ratioP2;P2;SDS_P1;SDS_P2;PMS_P1;PMS_P2;Temp;Humidity;BMP_temperature;BMP_pressure;BME280_temperature;BME280_humidity;BME280_pressure;Samples;Min_cycle;Max_cycle;Signal;HPM_P1;HPM_P2
2023/03/02 00:01:46;;;;;;;10.10;6.10;;;;;;;;;;4993005;28;20672;-42
2023/03/02 00:04:17;;;;;;;10.57;6.20;;;;;;;;;;4986666;28;20571;-42
2023/03/02 00:06:43;;;;;;;8.52;5.50;;;;;;;;;;4993016;28;20181;-43
2023/03/02 00:09:09;;;;;;;11.55;6.30;;;;;;;;;;4992910;28;20180;-43
2023/03/02 00:11:37;;;;;;;9.27;5.50;;;;;;;;;;4993106;28;20683;-43
2023/03/02 00:14:03;;;;;;;10.65;5.90;;;;;;;;;;4993806;28;20409;-44
2023/03/02 00:16:29;;;;;;;10.50;6.10;;;;;;;;;;4993946;28;20180;-44
2023/03/02 00:18:55;;;;;;;8.67;5.60;;;;;;;;;;4993741;28;20408;-44
2023/03/02 00:21:23;;;;;;;8.07;6.00;;;;;;;;;;4992094;28;20436;-46
2023/03/02 00:23:49;;;;;;;6.40;5.47;;;;;;;;;;4992898;28;20666;-44
2023/03/02 00:26:15;;;;;;;7.50;6.50;;;;;;;;;;4993090;28;20181;-44
2023/03/02 00:28:41;;;;;;;9.67;6.10;;;;;;;;;;4993749;28;20409;-44
2023/03/02 00:31:07;;;;;;;9.82;5.53;;;;;;;;;;4992936;28;20519;-46
2023/03/02 00:33:33;;;;;;;9.73;6.73;;;;;;;;;;4993128;28;20276;-44
2023/03/02 00:35:59;;;;;;;6.53;5.32;;;;;;;;;;4993259;28;20494;-45
2023/03/02 00:38:26;;;;;;;13.27;7.70;;;;;;;;;;4993577;28;20605;-45
2023/03/02 00:40:54;;;;;;;15.85;6.40;;;;;;;;;;4992544;28;20495;-44
2023/03/02 00:43:21;;;;;;;13.13;7.38;;;;;;;;;;4993300;28;20582;-44
2023/03/02 00:45:47;;;;;;;13.98;5.85;;;;;;;;;;4993315;28;20231;-42
2023/03/02 00:48:13;;;;;;;7.10;6.30;;;;;;;;;;4993252;28;20184;-42
2023/03/02 00:50:40;;;;;;;10.70;7.13;;;;;;;;;;4992829;28;20503;-41
2023/03/02 00:53:07;;;;;;;10.82;5.78;;;;;;;;;;4993151;28;20462;-42
2023/03/02 00:55:34;;;;;;;10.98;6.75;;;;;;;;;;4992986;28;20177;-43
2023/03/02 00:58:01;;;;;;;10.82;7.47;;;;;;;;;;4993028;28;20177;-41
2023/03/02 01:00:27;;;;;;;7.43;5.60;;;;;;;;;;4992356;28;20176;-42
2023/03/02 01:02:53;;;;;;;9.53;7.07;;;;;;;;;;4992734;28;20201;-42
2023/03/02 01:05:19;;;;;;;11.43;6.53;;;;;;;;;;4992909;28;20471;-41
2023/03/02 01:07:45;;;;;;;17.60;7.90;;;;;;;;;;4992837;28;20458;-42
2023/03/02 01:10:11;;;;;;;14.13;6.95;;;;;;;;;;4992034;28;20862;-41
2023/03/02 01:12:37;;;;;;;9.73;5.90;;;;;;;;;;4992767;28;20189;-43
2023/03/02 01:15:04;;;;;;;13.50;7.00;;;;;;;;;;4992795;28;20173;-43
2023/03/02 01:17:30;;;;;;;9.75;7.00;;;;;;;;;;4992749;28;20462;-43
2023/03/02 01:19:56;;;;;;;10.67;7.10;;;;;;;;;;4992544;28;20255;-43
2023/03/02 01:22:22;;;;;;;12.17;6.33;;;;;;;;;;4991977;28;20436;-43
2023/03/02 01:24:48;;;;;;;9.75;6.93;;;;;;;;;;4992369;28;20460;-43
2023/03/02 01:27:14;;;;;;;11.82;7.13;;;;;;;;;;4992570;28;20548;-43
2023/03/02 01:29:40;;;;;;;12.43;6.47;;;;;;;;;;4992696;28;20181;-43
2023/03/02 01:32:06;;;;;;;10.03;6.70;;;;;;;;;;4991802;28;20705;-41
2023/03/02 01:34:32;;;;;;;11.45;6.50;;;;;;;;;;4992783;28;20836;-43
2023/03/02 01:37:01;;;;;;;7.87;5.53;;;;;;;;;;4992935;28;20177;-43
2023/03/02 01:39:27;;;;;;;7.72;6.25;;;;;;;;;;4992393;28;20528;-43
2023/03/02 01:41:53;;;;;;;14.57;6.30;;;;;;;;;;4991573;28;20279;-43
2023/03/02 01:44:38;;;;;;;9.65;6.47;;;;;;;;;;4992299;28;20456;-43
2023/03/02 01:47:05;;;;;;;10.18;6.97;;;;;;;;;;4991479;28;20252;-43
2023/03/02 01:49:33;;;;;;;8.52;6.00;;;;;;;;;;4992259;28;20215;-43
2023/03/02 01:51:59;;;;;;;11.35;6.32;;;;;;;;;;4991825;28;20220;-43
2023/03/02 01:54:25;;;;;;;8.40;5.80;;;;;;;;;;4992582;28;20169;-43
2023/03/02 01:56:53;;;;;;;8.88;6.63;;;;;;;;;;4992196;28;20184;-43
2023/03/02 01:59:21;;;;;;;6.25;5.05;;;;;;;;;;4992174;28;20657;-43
2023/03/02 02:01:50;;;;;;;9.52;6.30;;;;;;;;;;4990699;28;20197;-43
2023/03/02 02:04:17;;;;;;;8.57;6.70;;;;;;;;;;4991560;28;20739;-41
2023/03/02 02:07:01;;;;;;;13.13;6.70;;;;;;;;;;4992360;28;20673;-44
2023/03/02 02:09:27;;;;;;;9.68;6.22;;;;;;;;;;4992187;28;20187;-44
2023/03/02 02:11:53;;;;;;;10.18;6.40;;;;;;;;;;4991966;28;20205;-44
2023/03/02 02:14:19;;;;;;;12.70;6.83;;;;;;;;;;4989408;28;20192;-44
2023/03/02 02:16:45;;;;;;;10.88;6.35;;;;;;;;;;4992384;28;20495;-44
2023/03/02 02:19:20;;;;;;;10.93;6.70;;;;;;;;;;4992257;28;20189;-43
2023/03/02 02:21:46;;;;;;;10.88;5.78;;;;;;;;;;4991164;28;20271;-43
2023/03/02 02:24:12;;;;;;;10.33;6.30;;;;;;;;;;4992194;28;20635;-43
2023/03/02 02:26:41;;;;;;;8.40;5.60;;;;;;;;;;4992096;28;20765;-42
2023/03/02 02:29:11;;;;;;;9.95;6.95;;;;;;;;;;4991874;28;20408;-42
2023/03/02 02:31:38;;;;;;;9.98;6.32;;;;;;;;;;4991259;28;20562;-43
2023/03/02 02:34:09;;;;;;;10.40;6.75;;;;;;;;;;4991719;28;20204;-43
2023/03/02 02:36:38;;;;;;;8.82;6.18;;;;;;;;;;4991780;28;20233;-43
2023/03/02 02:39:05;;;;;;;10.48;6.88;;;;;;;;;;4991684;28;20207;-43
2023/03/02 02:41:33;;;;;;;15.80;7.22;;;;;;;;;;4991351;28;20276;-43
2023/03/02 02:43:59;;;;;;;11.45;6.55;;;;;;;;;;4991910;28;20553;-43
2023/03/02 02:46:25;;;;;;;13.20;7.63;;;;;;;;;;4991476;28;20181;-43
2023/03/02 02:48:52;;;;;;;9.40;6.70;;;;;;;;;;4991546;28;20423;-43
2023/03/02 02:51:24;;;;;;;8.63;6.85;;;;;;;;;;4990961;28;20796;-43
2023/03/02 02:53:59;;;;;;;9.55;6.93;;;;;;;;;;4991619;28;20185;-43
2023/03/02 02:56:29;;;;;;;15.52;9.52;;;;;;;;;;4991631;28;20192;-42
2023/03/02 02:58:56;;;;;;;11.20;7.68;;;;;;;;;;4993372;28;20224;-42
2023/03/02 03:01:24;;;;;;;7.70;6.40;;;;;;;;;;4994654;28;20267;-43
2023/03/02 03:03:52;;;;;;;11.85;7.25;;;;;;;;;;4995057;28;20185;-43
2023/03/02 03:06:19;;;;;;;10.13;6.30;;;;;;;;;;4995319;28;20212;-43
2023/03/02 03:08:47;;;;;;;10.70;6.50;;;;;;;;;;4994897;28;20619;-43
2023/03/02 03:11:18;;;;;;;11.05;6.68;;;;;;;;;;4994398;28;20288;-43
2023/03/02 03:13:45;;;;;;;13.50;6.65;;;;;;;;;;4994992;28;20187;-43
2023/03/02 03:16:13;;;;;;;8.90;6.60;;;;;;;;;;4993685;28;20528;-42
2023/03/02 03:18:41;;;;;;;7.75;6.80;;;;;;;;;;4994925;28;20196;-43
2023/03/02 03:21:07;;;;;;;8.93;6.25;;;;;;;;;;4986118;28;20251;-43
2023/03/02 03:23:37;;;;;;;9.97;6.50;;;;;;;;;;4994620;28;20177;-43
2023/03/02 03:26:03;;;;;;;13.25;6.47;;;;;;;;;;4994970;28;20492;-43
2023/03/02 03:28:29;;;;;;;8.82;5.95;;;;;;;;;;4994738;28;20264;-42
2023/03/02 03:30:55;;;;;;;8.33;6.43;;;;;;;;;;4994068;28;20283;-41
2023/03/02 03:33:21;;;;;;;11.70;7.07;;;;;;;;;;4998992;28;20432;-41
2023/03/02 03:35:47;;;;;;;9.60;6.60;;;;;;;;;;4995089;28;20444;-41
2023/03/02 03:38:13;;;;;;;13.60;8.07;;;;;;;;;;4994617;28;20212;-42
2023/03/02 03:40:39;;;;;;;13.70;6.80;;;;;;;;;;4993942;28;20811;-41
2023/03/02 03:43:05;;;;;;;8.50;6.27;;;;;;;;;;4994663;28;20404;-42
2023/03/02 03:45:31;;;;;;;9.63;7.03;;;;;;;;;;4997612;28;20467;-41
2023/03/02 03:47:57;;;;;;;9.43;6.37;;;;;;;;;;4994666;28;20510;-42
2023/03/02 03:50:23;;;;;;;12.70;7.50;;;;;;;;;;4994213;28;20908;-43
2023/03/02 03:52:49;;;;;;;9.27;6.30;;;;;;;;;;4994149;28;20611;-43
2023/03/02 03:55:15;;;;;;;13.07;7.17;;;;;;;;;;4994863;28;20201;-44
2023/03/02 03:57:41;;;;;;;11.80;6.07;;;;;;;;;;4994676;28;20904;-42
2023/03/02 04:00:09;;;;;;;9.93;6.30;;;;;;;;;;4993575;28;20466;-42
2023/03/02 04:02:35;;;;;;;12.27;7.35;;;;;;;;;;4994037;28;20201;-43
2023/03/02 04:05:05;;;;;;;9.80;7.70;;;;;;;;;;4993902;28;20287;-42
2023/03/02 04:07:31;;;;;;;10.55;7.07;;;;;;;;;;4994030;28;20173;-43
2023/03/02 04:10:02;;;;;;;8.32;6.18;;;;;;;;;;4993243;28;20181;-43
2023/03/02 04:12:32;;;;;;;8.38;6.50;;;;;;;;;;4993692;28;20277;-44
2023/03/02 04:14:58;;;;;;;9.80;5.82;;;;;;;;;;4993914;28;20235;-43
2023/03/02 04:17:24;;;;;;;12.43;6.78;;;;;;;;;;4993816;28;20181;-43
2023/03/02 04:19:50;;;;;;;9.18;6.50;;;;;;;;;;4993724;28;20209;-42
2023/03/02 04:22:18;;;;;;;6.77;6.10;;;;;;;;;;4993002;28;20236;-42
2023/03/02 04:24:44;;;;;;;7.68;5.72;;;;;;;;;;4993647;28;20490;-42
2023/03/02 04:27:10;;;;;;;7.33;5.43;;;;;;;;;;4993862;28;20185;-43
2023/03/02 04:29:36;;;;;;;12.55;6.22;;;;;;;;;;4993651;28;20424;-42
2023/03/02 04:32:02;;;;;;;10.32;6.50;;;;;;;;;;4992867;28;20296;-43
2023/03/02 04:34:28;;;;;;;6.70;5.47;;;;;;;;;;4993544;28;20275;-43
2023/03/02 04:36:54;;;;;;;9.23;6.18;;;;;;;;;;4993527;28;20208;-43
2023/03/02 04:39:21;;;;;;;8.30;6.40;;;;;;;;;;4993468;28;20216;-43
2023/03/02 04:41:47;;;;;;;6.97;5.70;;;;;;;;;;4992605;28;20444;-43
2023/03/02 04:44:14;;;;;;;9.70;5.45;;;;;;;;;;4993380;28;20617;-43
2023/03/02 04:46:44;;;;;;;8.88;6.65;;;;;;;;;;4993329;28;20181;-42
2023/03/02 04:49:11;;;;;;;5.78;5.25;;;;;;;;;;4985748;28;20201;-43
2023/03/02 04:51:38;;;;;;;11.70;6.65;;;;;;;;;;4992629;28;20591;-42
2023/03/02 04:54:06;;;;;;;9.00;6.32;;;;;;;;;;4993166;28;20317;-43
2023/03/02 04:56:35;;;;;;;11.48;7.07;;;;;;;;;;4993216;28;20181;-43
2023/03/02 04:59:01;;;;;;;7.75;5.30;;;;;;;;;;4996376;28;20718;-43
2023/03/02 05:01:27;;;;;;;12.75;6.65;;;;;;;;;;4992192;28;20197;-43
2023/03/02 05:03:53;;;;;;;11.00;6.50;;;;;;;;;;4992745;28;20208;-43
2023/03/02 05:06:20;;;;;;;12.00;6.88;;;;;;;;;;4992922;28;20267;-43
2023/03/02 05:08:47;;;;;;;6.60;5.63;;;;;;;;;;4993427;28;20173;-42
2023/03/02 05:11:21;;;;;;;9.73;6.53;;;;;;;;;;4992214;28;20263;-44
2023/03/02 05:13:50;;;;;;;9.85;6.35;;;;;;;;;;4992658;28;20176;-42
2023/03/02 05:16:17;;;;;;;12.38;6.97;;;;;;;;;;4992808;28;20176;-43
2023/03/02 05:18:43;;;;;;;6.78;5.95;;;;;;;;;;4992549;28;20189;-43
2023/03/02 05:21:09;;;;;;;8.00;5.87;;;;;;;;;;4991873;28;20231;-42
2023/03/02 05:23:35;;;;;;;7.20;6.00;;;;;;;;;;4992592;28;20466;-43
2023/03/02 05:26:01;;;;;;;13.45;6.68;;;;;;;;;;4994940;28;20555;-42
2023/03/02 05:28:27;;;;;;;9.97;5.90;;;;;;;;;;5003709;28;20192;-42
2023/03/02 05:30:53;;;;;;;11.80;6.65;;;;;;;;;;4992102;28;20799;-43
2023/03/02 05:33:20;;;;;;;8.87;6.17;;;;;;;;;;4992208;28;20184;-42
2023/03/02 05:35:46;;;;;;;10.10;6.00;;;;;;;;;;4992530;28;20424;-42
2023/03/02 05:38:12;;;;;;;7.50;6.18;;;;;;;;;;4992466;28;20216;-43
2023/03/02 05:40:38;;;;;;;10.67;6.73;;;;;;;;;;4991618;28;20212;-43
2023/03/02 05:43:05;;;;;;;11.15;7.63;;;;;;;;;;4992258;28;20409;-43
2023/03/02 05:45:32;;;;;;;11.48;7.43;;;;;;;;;;4992408;28;20211;-42
2023/03/02 05:47:58;;;;;;;11.38;7.07;;;;;;;;;;4992344;28;20176;-44
2023/03/02 05:50:24;;;;;;;9.57;5.80;;;;;;;;;;4991592;28;20181;-43
2023/03/02 05:52:50;;;;;;;11.97;7.10;;;;;;;;;;4992152;28;20432;-43
2023/03/02 05:55:17;;;;;;;9.35;5.80;;;;;;;;;;4992249;28;20420;-44
2023/03/02 05:57:43;;;;;;;12.50;6.88;;;;;;;;;;4992394;28;20246;-43
2023/03/02 06:00:10;;;;;;;14.03;6.90;;;;;;;;;;4991566;28;20252;-43
2023/03/02 06:02:38;;;;;;;9.43;6.22;;;;;;;;;;4992175;28;20468;-42
2023/03/02 06:05:04;;;;;;;8.45;6.18;;;;;;;;;;4992209;28;20558;-43
2023/03/02 06:07:30;;;;;;;13.95;6.50;;;;;;;;;;4992132;28;20169;-43
2023/03/02 06:09:56;;;;;;;9.70;5.73;;;;;;;;;;4991889;28;20223;-43
2023/03/02 06:12:22;;;;;;;10.32;6.82;;;;;;;;;;4991484;28;20428;-43
2023/03/02 06:14:48;;;;;;;10.13;6.10;;;;;;;;;;4992348;28;20650;-42
2023/03/02 06:17:14;;;;;;;10.27;5.60;;;;;;;;;;4992212;28;20212;-43
2023/03/02 06:19:40;;;;;;;11.10;6.78;;;;;;;;;;4991885;28;20416;-43
2023/03/02 06:22:06;;;;;;;8.13;5.33;;;;;;;;;;4991277;28;20203;-43
2023/03/02 06:24:32;;;;;;;7.93;6.57;;;;;;;;;;4991921;28;20534;-43
2023/03/02 06:26:58;;;;;;;9.80;5.67;;;;;;;;;;4991728;28;20431;-43
2023/03/02 06:29:24;;;;;;;9.00;6.47;;;;;;;;;;4991076;28;20483;-43
2023/03/02 06:31:50;;;;;;;10.57;7.10;;;;;;;;;;4991376;28;20475;-44
2023/03/02 06:34:16;;;;;;;13.30;5.27;;;;;;;;;;4994644;28;20197;-42
2023/03/02 06:36:42;;;;;;;8.20;5.30;;;;;;;;;;4995714;28;20424;-42
2023/03/02 06:39:14;;;;;;;7.50;5.87;;;;;;;;;;4996203;28;20447;-42
2023/03/02 06:41:43;;;;;;;9.07;6.50;;;;;;;;;;4994949;28;20442;-42
2023/03/02 06:44:09;;;;;;;12.40;6.00;;;;;;;;;;4987759;28;20196;-44
2023/03/02 06:46:36;;;;;;;12.82;6.15;;;;;;;;;;4995591;28;20229;-44
2023/03/02 06:49:02;;;;;;;9.48;5.80;;;;;;;;;;4995397;28;20213;-43
2023/03/02 06:51:28;;;;;;;7.68;5.75;;;;;;;;;;4994793;28;20185;-43
2023/03/02 06:53:54;;;;;;;9.63;5.83;;;;;;;;;;4995397;28;20184;-42
2023/03/02 06:56:23;;;;;;;8.67;5.93;;;;;;;;;;4995359;28;20482;-42
2023/03/02 06:58:49;;;;;;;8.60;5.50;;;;;;;;;;4995236;28;20419;-43
2023/03/02 07:01:15;;;;;;;12.10;6.50;;;;;;;;;;4993219;28;20208;-42
2023/03/02 07:03:41;;;;;;;8.50;6.40;;;;;;;;;;4995061;28;20420;-43
2023/03/02 07:06:07;;;;;;;9.50;6.10;;;;;;;;;;4995068;28;20502;-43
2023/03/02 07:08:34;;;;;;;12.05;7.30;;;;;;;;;;4995304;28;20189;-44
2023/03/02 07:11:03;;;;;;;8.38;6.93;;;;;;;;;;4994473;28;20667;-43
2023/03/02 07:13:31;;;;;;;8.00;6.05;;;;;;;;;;4989708;28;20188;-44
2023/03/02 07:15:57;;;;;;;9.77;6.47;;;;;;;;;;4995043;28;20239;-43
2023/03/02 07:18:23;;;;;;;7.93;6.07;;;;;;;;;;4995388;28;20181;-43
2023/03/02 07:20:49;;;;;;;11.68;6.75;;;;;;;;;;4994054;28;20493;-43
2023/03/02 07:23:15;;;;;;;15.30;6.87;;;;;;;;;;4995169;28;20272;-42
2023/03/02 07:25:41;;;;;;;16.33;6.68;;;;;;;;;;4995030;28;20904;-43
2023/03/02 07:28:07;;;;;;;16.00;6.27;;;;;;;;;;4994784;28;20207;-43
2023/03/02 07:30:33;;;;;;;7.77;5.33;;;;;;;;;;4994167;28;20904;-44
2023/03/02 07:32:59;;;;;;;10.20;7.00;;;;;;;;;;5000956;28;20866;-44
2023/03/02 07:35:24;;;;;;;8.00;6.10;;;;;;;;;;4993952;28;20416;-43
2023/03/02 07:37:54;;;;;;;14.30;7.00;;;;;;;;;;4994550;28;20448;-42
2023/03/02 07:40:20;;;;;;;10.57;6.30;;;;;;;;;;4993895;28;20802;-43
2023/03/02 07:42:46;;;;;;;6.60;5.63;;;;;;;;;;4994254;28;20197;-43
2023/03/02 07:45:12;;;;;;;11.03;6.20;;;;;;;;;;4992988;28;20571;-43
2023/03/02 07:47:40;;;;;;;10.10;6.97;;;;;;;;;;4994376;28;20419;-43
2023/03/02 07:50:09;;;;;;;10.65;6.40;;;;;;;;;;4993668;28;20454;-43
2023/03/02 07:52:35;;;;;;;8.13;5.00;;;;;;;;;;4994294;28;20208;-43
2023/03/02 07:55:01;;;;;;;7.20;5.93;;;;;;;;;;4993854;28;20181;-42
2023/03/02 07:57:27;;;;;;;8.52;6.25;;;;;;;;;;4994269;28;20420;-43
2023/03/02 07:59:53;;;;;;;10.20;6.40;;;;;;;;;;4994114;28;20185;-43
2023/03/02 08:02:19;;;;;;;8.57;5.93;;;;;;;;;;4994084;28;20438;-44
2023/03/02 08:04:46;;;;;;;8.43;6.13;;;;;;;;;;4996344;28;20466;-43
2023/03/02 08:07:12;;;;;;;8.63;6.00;;;;;;;;;;4994225;28;20493;-42
2023/03/02 08:09:53;;;;;;;8.53;6.33;;;;;;;;;;4993985;28;20408;-44
2023/03/02 08:12:19;;;;;;;10.67;6.47;;;;;;;;;;4985881;28;20546;-44
2023/03/02 08:14:47;;;;;;;8.43;5.77;;;;;;;;;;4993455;28;20417;-43
2023/03/02 08:17:12;;;;;;;10.23;5.93;;;;;;;;;;4993754;28;20463;-43
2023/03/02 08:19:38;;;;;;;9.57;6.40;;;;;;;;;;4988812;28;20857;-43
2023/03/02 08:22:05;;;;;;;12.48;5.80;;;;;;;;;;4999556;28;20444;-43
2023/03/02 08:24:32;;;;;;;10.35;5.53;;;;;;;;;;4995129;28;20680;-41
2023/03/02 08:27:02;;;;;;;8.30;5.55;;;;;;;;;;4992232;28;20189;-41
2023/03/02 08:29:28;;;;;;;6.72;5.90;;;;;;;;;;4994494;28;20181;-42
2023/03/02 08:31:54;;;;;;;6.03;5.00;;;;;;;;;;4994630;28;20204;-42
2023/03/02 08:34:20;;;;;;;15.47;6.07;;;;;;;;;;4992863;28;20471;-42
2023/03/02 08:36:46;;;;;;;9.23;5.80;;;;;;;;;;4993278;28;20507;-42
2023/03/02 08:39:12;;;;;;;9.97;5.60;;;;;;;;;;4993152;28;20411;-42
2023/03/02 08:41:38;;;;;;;7.97;5.90;;;;;;;;;;4992778;28;21002;-43
2023/03/02 08:44:04;;;;;;;6.90;5.40;;;;;;;;;;4992470;28;20474;-42
2023/03/02 08:46:30;;;;;;;9.33;5.30;;;;;;;;;;4993237;28;20630;-44
2023/03/02 08:48:56;;;;;;;8.00;6.20;;;;;;;;;;4993106;28;20413;-44
2023/03/02 08:51:24;;;;;;;8.73;5.87;;;;;;;;;;4992655;28;20436;-46
2023/03/02 08:53:50;;;;;;;7.87;5.77;;;;;;;;;;4992839;28;20421;-46
2023/03/02 08:56:18;;;;;;;7.47;5.30;;;;;;;;;;4992605;28;20419;-46
2023/03/02 08:58:46;;;;;;;7.43;5.77;;;;;;;;;;4992968;28;20420;-44
2023/03/02 09:01:16;;;;;;;6.50;5.80;;;;;;;;;;4992096;28;20449;-44
2023/03/02 09:03:42;;;;;;;6.63;5.23;;;;;;;;;;4992667;28;20928;-44
2023/03/02 09:06:08;;;;;;;8.73;6.10;;;;;;;;;;4992807;28;20448;-45
2023/03/02 09:08:34;;;;;;;10.70;5.83;;;;;;;;;;4992919;28;20929;-44
2023/03/02 09:11:03;;;;;;;8.43;6.07;;;;;;;;;;4992145;28;20445;-43
2023/03/02 09:13:29;;;;;;;9.37;5.00;;;;;;;;;;4992714;28;20812;-43
2023/03/02 09:16:00;;;;;;;9.00;5.60;;;;;;;;;;4992612;28;20481;-44
2023/03/02 09:21:29;;;;;;;9.23;6.40;;;;;;;;;;4982044;28;20438;-43
2023/03/02 09:23:57;;;;;;;8.17;5.63;;;;;;;;;;4991891;28;20464;-44
2023/03/02 09:26:23;;;;;;;8.03;6.40;;;;;;;;;;4992412;28;20471;-43
2023/03/02 09:28:49;;;;;;;11.73;6.13;;;;;;;;;;4992607;28;20783;-44
2023/03/02 09:31:15;;;;;;;7.10;4.97;;;;;;;;;;4999500;28;20792;-44
2023/03/02 09:33:41;;;;;;;7.40;5.80;;;;;;;;;;4992304;28;20459;-44
2023/03/02 09:36:08;;;;;;;9.47;5.40;;;;;;;;;;4992040;28;20418;-44
2023/03/02 09:38:34;;;;;;;9.23;6.00;;;;;;;;;;4992222;28;20514;-44
2023/03/02 09:41:20;;;;;;;8.07;5.90;;;;;;;;;;4991461;28;20574;-44
2023/03/02 09:43:49;;;;;;;6.17;5.27;;;;;;;;;;4991792;28;20519;-45
2023/03/02 09:46:34;;;;;;;8.93;5.27;;;;;;;;;;4991142;28;20493;-44
2023/03/02 09:49:17;;;;;;;7.07;5.47;;;;;;;;;;4998812;28;20387;-42
2023/03/02 09:52:01;;;;;;;9.90;7.20;;;;;;;;;;4991608;28;20411;-46
2023/03/02 09:54:28;;;;;;;6.90;5.87;;;;;;;;;;4992490;28;20455;-44
2023/03/02 09:56:56;;;;;;;10.80;6.70;;;;;;;;;;4990943;28;20397;-44
2023/03/02 09:59:34;;;;;;;8.10;5.90;;;;;;;;;;4991362;28;20419;-44
2023/03/02 10:02:03;;;;;;;5.93;5.33;;;;;;;;;;4991316;28;20472;-44
2023/03/02 10:04:32;;;;;;;7.70;5.67;;;;;;;;;;4992042;28;20433;-44
2023/03/02 10:07:10;;;;;;;9.60;5.30;;;;;;;;;;4991755;28;20397;-45
2023/03/02 10:09:36;;;;;;;8.03;5.83;;;;;;;;;;4995030;28;20442;-45
2023/03/02 10:12:09;;;;;;;6.57;5.40;;;;;;;;;;4995560;28;20472;-45
2023/03/02 10:14:37;;;;;;;5.70;5.20;;;;;;;;;;4996026;28;20395;-44
2023/03/02 10:17:06;;;;;;;6.73;5.07;;;;;;;;;;4995467;28;20865;-44
2023/03/02 10:19:43;;;;;;;6.47;5.23;;;;;;;;;;4996401;28;20992;-44
2023/03/02 10:22:15;;;;;;;9.80;5.87;;;;;;;;;;4987451;28;20431;-44
2023/03/02 10:25:04;;;;;;;7.00;5.80;;;;;;;;;;4994705;28;20463;-44
2023/03/02 10:27:41;;;;;;;8.40;5.90;;;;;;;;;;4990036;28;20423;-44
2023/03/02 10:30:16;;;;;;;6.00;4.97;;;;;;;;;;4995032;28;20416;-44
2023/03/02 10:32:44;;;;;;;7.70;6.03;;;;;;;;;;4994888;28;20427;-44
2023/03/02 10:35:15;;;;;;;5.60;4.60;;;;;;;;;;4987949;28;20449;-44
2023/03/02 10:37:41;;;;;;;11.70;8.27;;;;;;;;;;4995419;28;20577;-44
2023/03/02 10:40:16;;;;;;;8.27;5.20;;;;;;;;;;4994760;28;20914;-45
2023/03/02 10:42:42;;;;;;;7.37;5.17;;;;;;;;;;4995255;28;20418;-44
2023/03/02 10:45:08;;;;;;;8.53;5.20;;;;;;;;;;4995216;28;20440;-44
2023/03/02 10:47:34;;;;;;;7.80;5.53;;;;;;;;;;4995094;28;20482;-45
2023/03/02 10:50:00;;;;;;;7.30;5.50;;;;;;;;;;4995272;28;20382;-45
2023/03/02 10:52:27;;;;;;;8.37;6.10;;;;;;;;;;4994912;28;20440;-45
2023/03/02 10:55:12;;;;;;;6.30;5.40;;;;;;;;;;4995172;28;20401;-45
2023/03/02 10:57:45;;;;;;;6.93;6.10;;;;;;;;;;4990758;28;20442;-44
2023/03/02 11:00:17;;;;;;;7.97;5.67;;;;;;;;;;4993076;28;20420;-44
2023/03/02 11:02:52;;;;;;;7.80;6.10;;;;;;;;;;4994237;28;20902;-45
2023/03/02 11:05:18;;;;;;;9.27;5.83;;;;;;;;;;4994893;28;21001;-44
2023/03/02 11:07:54;;;;;;;6.87;5.20;;;;;;;;;;4994691;28;20507;-45
2023/03/02 11:10:22;;;;;;;6.50;5.10;;;;;;;;;;4994291;28;20896;-45
2023/03/02 11:12:49;;;;;;;7.60;5.50;;;;;;;;;;4994600;28;20443;-45
2023/03/02 11:15:35;;;;;;;6.00;5.23;;;;;;;;;;4994988;28;20824;-45
2023/03/02 11:18:06;;;;;;;6.30;5.43;;;;;;;;;;4994656;28;20417;-44
2023/03/02 11:20:34;;;;;;;6.10;5.10;;;;;;;;;;4993623;28;20384;-46
2023/03/02 11:23:00;;;;;;;8.13;5.30;;;;;;;;;;4994462;28;20414;-44
2023/03/02 11:25:30;;;;;;;9.73;5.20;;;;;;;;;;4994696;28;20474;-44
2023/03/02 11:28:02;;;;;;;5.73;5.17;;;;;;;;;;4994470;28;20859;-45
2023/03/02 11:30:30;;;;;;;6.20;5.60;;;;;;;;;;4994101;28;20406;-44
2023/03/02 11:33:07;;;;;;;5.27;4.60;;;;;;;;;;4993912;28;20538;-45
2023/03/02 11:35:36;;;;;;;8.63;6.03;;;;;;;;;;4994690;28;20452;-45
2023/03/02 11:38:11;;;;;;;8.33;5.87;;;;;;;;;;4994301;28;20427;-44
2023/03/02 11:40:44;;;;;;;6.90;5.17;;;;;;;;;;4993790;28;20428;-45
2023/03/02 11:43:11;;;;;;;5.57;4.63;;;;;;;;;;4986511;28;20781;-45
2023/03/02 11:45:45;;;;;;;7.00;5.37;;;;;;;;;;4994074;28;20455;-45
2023/03/02 11:48:17;;;;;;;6.57;5.50;;;;;;;;;;4986884;28;20451;-45
2023/03/02 11:51:03;;;;;;;4.97;4.37;;;;;;;;;;4993522;28;20423;-45
2023/03/02 11:53:36;;;;;;;7.00;4.50;;;;;;;;;;4993824;28;20489;-45
2023/03/02 11:56:02;;;;;;;5.60;4.67;;;;;;;;;;4993249;28;20420;-45
2023/03/02 11:58:29;;;;;;;6.03;4.87;;;;;;;;;;4994106;28;20423;-44
2023/03/02 12:00:55;;;;;;;5.70;5.20;;;;;;;;;;4993494;28;22114;-45
2023/03/02 12:03:23;;;;;;;5.80;4.80;;;;;;;;;;4993929;28;20886;-45
2023/03/02 12:05:52;;;;;;;6.33;4.57;;;;;;;;;;4994118;28;20518;-45
2023/03/02 12:08:18;;;;;;;5.67;4.50;;;;;;;;;;4993801;28;20471;-45
2023/03/02 12:10:57;;;;;;;7.23;5.03;;;;;;;;;;4993537;28;20432;-44
2023/03/02 12:13:25;;;;;;;5.70;4.40;;;;;;;;;;4993368;28;20397;-44
2023/03/02 12:15:51;;;;;;;6.73;5.00;;;;;;;;;;4993687;28;20447;-45
2023/03/02 12:18:21;;;;;;;6.27;4.73;;;;;;;;;;4993781;28;20388;-44
2023/03/02 12:21:05;;;;;;;6.83;5.73;;;;;;;;;;4986712;28;20419;-45
2023/03/02 12:23:39;;;;;;;6.40;4.50;;;;;;;;;;4993186;28;20417;-45
2023/03/02 12:26:05;;;;;;;8.10;5.13;;;;;;;;;;4993167;28;20421;-45
2023/03/02 12:28:33;;;;;;;5.27;4.43;;;;;;;;;;4992932;28;20372;-45
2023/03/02 12:31:07;;;;;;;5.80;4.87;;;;;;;;;;4991309;28;20428;-44
2023/03/02 12:33:38;;;;;;;4.27;3.87;;;;;;;;;;4990718;28;20434;-44
2023/03/02 12:36:10;;;;;;;4.63;4.10;;;;;;;;;;4992237;28;20404;-44
2023/03/02 12:38:38;;;;;;;5.50;4.47;;;;;;;;;;4992790;28;20428;-44
2023/03/02 12:41:08;;;;;;;8.07;4.50;;;;;;;;;;4991683;28;20436;-45
2023/03/02 12:43:36;;;;;;;6.63;5.30;;;;;;;;;;4993072;28;20477;-45
2023/03/02 12:46:21;;;;;;;5.30;4.80;;;;;;;;;;4993397;28;20469;-45
2023/03/02 12:49:05;;;;;;;3.70;3.40;;;;;;;;;;4993177;28;20953;-44
2023/03/02 12:51:48;;;;;;;4.77;3.70;;;;;;;;;;4987811;28;20531;-45
2023/03/02 12:54:15;;;;;;;5.13;4.70;;;;;;;;;;4991080;28;20431;-45
2023/03/02 12:56:41;;;;;;;5.30;4.80;;;;;;;;;;4991280;28;20426;-44
2023/03/02 12:59:19;;;;;;;6.13;4.60;;;;;;;;;;4991173;28;20795;-44
2023/03/02 13:01:44;;;;;;;7.27;4.17;;;;;;;;;;4992395;28;20489;-45
2023/03/02 13:04:20;;;;;;;6.77;4.47;;;;;;;;;;4990618;28;20859;-45
2023/03/02 13:06:46;;;;;;;4.90;4.40;;;;;;;;;;4993046;28;20991;-44
2023/03/02 13:09:13;;;;;;;5.87;4.50;;;;;;;;;;4984717;28;20426;-44
2023/03/02 13:11:39;;;;;;;4.57;4.00;;;;;;;;;;4992389;28;20439;-45
2023/03/02 13:14:19;;;;;;;4.83;4.43;;;;;;;;;;4989764;28;20485;-45
2023/03/02 13:16:53;;;;;;;4.70;4.20;;;;;;;;;;4992827;28;20420;-45
2023/03/02 13:19:19;;;;;;;4.17;3.77;;;;;;;;;;4990662;28;20429;-45
2023/03/02 13:21:45;;;;;;;6.50;4.40;;;;;;;;;;4989595;28;20946;-45
2023/03/02 13:24:30;;;;;;;6.00;4.20;;;;;;;;;;4992296;28;20468;-45
2023/03/02 13:27:19;;;;;;;3.57;3.27;;;;;;;;;;4991843;28;20488;-45
2023/03/02 13:29:45;;;;;;;5.67;4.33;;;;;;;;;;4987709;28;21145;-45
2023/03/02 13:32:46;;;;;;;4.83;3.90;;;;;;;;;;4991833;28;20945;-45
2023/03/02 13:35:17;;;;;;;4.47;3.80;;;;;;;;;;4978923;28;20476;-45
2023/03/02 13:37:43;;;;;;;6.00;4.10;;;;;;;;;;4986551;28;20412;-45
2023/03/02 13:40:21;;;;;;;5.60;4.23;;;;;;;;;;4989889;28;20845;-45
2023/03/02 13:42:47;;;;;;;4.83;4.40;;;;;;;;;;4991283;28;20986;-45
2023/03/02 13:45:29;;;;;;;6.13;4.63;;;;;;;;;;4991685;28;20487;-45
2023/03/02 13:47:57;;;;;;;6.07;4.10;;;;;;;;;;4991313;28;20517;-45
2023/03/02 13:50:25;;;;;;;5.30;4.53;;;;;;;;;;4990421;28;20415;-45
2023/03/02 13:52:51;;;;;;;5.17;4.67;;;;;;;;;;4987296;28;20542;-45
2023/03/02 13:55:18;;;;;;;4.30;3.90;;;;;;;;;;4987766;28;20911;-45
2023/03/02 13:57:45;;;;;;;5.30;4.67;;;;;;;;;;4991022;28;20518;-45
2023/03/02 14:00:16;;;;;;;4.40;4.00;;;;;;;;;;4990480;28;20433;-45
2023/03/02 14:02:42;;;;;;;5.43;4.87;;;;;;;;;;4991744;28;20428;-45
2023/03/02 14:05:15;;;;;;;5.77;4.53;;;;;;;;;;4990856;28;20547;-45
2023/03/02 14:07:41;;;;;;;4.23;3.90;;;;;;;;;;4991067;28;20804;-44
2023/03/02 14:10:07;;;;;;;4.23;3.83;;;;;;;;;;4990979;28;20857;-45
2023/03/02 14:12:33;;;;;;;6.03;4.10;;;;;;;;;;4990115;28;20870;-45
2023/03/02 14:15:01;;;;;;;4.97;4.47;;;;;;;;;;4990972;28;20430;-43
2023/03/02 14:17:27;;;;;;;4.73;4.20;;;;;;;;;;4989919;28;20430;-44
2023/03/02 14:19:54;;;;;;;5.77;4.60;;;;;;;;;;4991314;28;20397;-43
2023/03/02 14:22:20;;;;;;;5.47;4.63;;;;;;;;;;4995478;28;20547;-43
2023/03/02 14:24:46;;;;;;;5.30;4.80;;;;;;;;;;4991696;28;20517;-43
2023/03/02 14:27:14;;;;;;;5.83;5.33;;;;;;;;;;4991372;28;20461;-43
2023/03/02 14:29:40;;;;;;;5.70;4.23;;;;;;;;;;4991572;28;20828;-43
2023/03/02 14:32:06;;;;;;;6.83;4.70;;;;;;;;;;4989782;28;20440;-42
2023/03/02 14:34:33;;;;;;;6.10;4.90;;;;;;;;;;4987177;28;20427;-45
2023/03/02 14:37:02;;;;;;;5.33;4.83;;;;;;;;;;4990472;28;20439;-44
2023/03/02 14:39:28;;;;;;;5.83;4.77;;;;;;;;;;4990421;28;20435;-43
2023/03/02 14:41:54;;;;;;;5.63;4.80;;;;;;;;;;4990809;28;20435;-43
2023/03/02 14:44:20;;;;;;;4.97;4.57;;;;;;;;;;4989771;28;20465;-43
2023/03/02 14:46:46;;;;;;;9.50;5.10;;;;;;;;;;4990634;28;20423;-43
2023/03/02 14:49:12;;;;;;;5.17;4.47;;;;;;;;;;4989368;28;20488;-43